createdAt,value
2022-12-08T00:00:55.056Z,95.55
2022-12-08T00:02:58.942Z,95.06
2022-12-08T00:05:20.083Z,95.06
2022-12-08T00:07:41.174Z,95.59
2022-12-08T00:09:44.545Z,94.89
2022-12-08T00:11:48.101Z,95.06
2022-12-08T00:13:52.828Z,95.36
2022-12-08T00:16:01.670Z,95.27
2022-12-08T00:18:04.987Z,95.13
2022-12-08T00:20:09.431Z,94.82
2022-12-08T00:22:14.678Z,95.70
2022-12-08T00:24:18.835Z,95.02
2022-12-08T00:26:22.209Z,94.89
2022-12-08T00:28:25.555Z,95.55
2022-12-08T00:30:30.299Z,95.21
2022-12-08T00:32:33.633Z,94.54
2022-12-08T00:34:37.081Z,94.88
2022-12-08T00:36:40.513Z,94.28
2022-12-08T00:38:44.722Z,94.47
2022-12-08T00:40:48.828Z,94.83
2022-12-08T00:42:52.197Z,93.89
2022-12-08T00:44:55.594Z,94.67
2022-12-08T00:47:00.369Z,94.74
2022-12-08T00:49:04.021Z,93.49
2022-12-08T00:51:07.759Z,94.75
2022-12-08T00:53:11.117Z,94.06
2022-12-08T00:55:14.500Z,94.61
2022-12-08T00:57:17.904Z,94.06
2022-12-08T00:59:21.225Z,94.67
2022-12-08T01:01:25.097Z,94.26
2022-12-08T01:03:29.847Z,94.46
2022-12-08T01:05:33.338Z,95.00
2022-12-08T01:07:36.780Z,94.84
2022-12-08T01:09:40.170Z,94.40
2022-12-08T01:11:44.379Z,94.47
2022-12-08T01:13:48.129Z,94.62
2022-12-08T01:15:51.473Z,94.24
2022-12-08T01:17:54.793Z,94.27
2022-12-08T01:19:59.598Z,94.43
2022-12-08T01:22:02.904Z,94.69
2022-12-08T01:24:07.193Z,94.65
2022-12-08T01:26:13.655Z,93.29
2022-12-08T01:28:16.951Z,93.93
2022-12-08T01:30:20.943Z,94.02
2022-12-08T01:32:24.388Z,94.63
2022-12-08T01:34:27.791Z,93.83
2022-12-08T01:36:36.945Z,93.18
2022-12-08T01:38:40.412Z,93.98
2022-12-08T01:40:43.839Z,93.87
2022-12-08T01:42:47.597Z,93.76
2022-12-08T01:44:56.513Z,93.55
2022-12-08T01:47:00.210Z,93.48
2022-12-08T01:49:08.119Z,93.53
2022-12-08T01:51:11.640Z,93.23
2022-12-08T01:53:20.800Z,93.64
2022-12-08T01:55:27.443Z,94.35
2022-12-08T01:57:34.833Z,94.35
2022-12-08T01:59:42.426Z,93.48
2022-12-08T02:01:46.174Z,94.28
2022-12-08T02:03:55.607Z,94.56
2022-12-08T02:05:59.567Z,93.88
2022-12-08T02:08:06.969Z,93.86
2022-12-08T02:10:14.941Z,93.80
2022-12-08T02:12:18.604Z,93.50
2022-12-08T02:14:22.155Z,94.14
2022-12-08T02:16:39.198Z,94.23
2022-12-08T02:19:29.082Z,92.89
2022-12-08T02:21:33.614Z,93.42
2022-12-08T02:23:48.397Z,93.14
2022-12-08T02:26:43.171Z,93.27
2022-12-08T02:29:08.987Z,92.58
2022-12-08T02:31:24.560Z,93.14
2022-12-08T02:33:57.297Z,92.33
2022-12-08T02:36:07.119Z,92.78
2022-12-08T02:38:18.212Z,92.79
2022-12-08T02:40:27.024Z,92.03
2022-12-08T02:42:36.151Z,93.57
2022-12-08T02:44:44.878Z,92.71
2022-12-08T02:46:59.677Z,92.42
2022-12-08T02:49:03.527Z,93.26
2022-12-08T02:51:08.321Z,93.34
2022-12-08T02:55:21.548Z,93.36
2022-12-08T02:57:40.148Z,92.14
2022-12-08T03:00:03.009Z,92.49
2022-12-08T03:02:23.258Z,91.80
2022-12-08T03:04:36.461Z,91.99
2022-12-08T03:06:48.591Z,92.33
2022-12-08T03:08:59.109Z,92.50
2022-12-08T03:11:05.989Z,92.51
2022-12-08T03:13:12.818Z,92.43
2022-12-08T03:15:20.420Z,92.00
2022-12-08T03:17:29.540Z,91.08
2022-12-08T03:19:37.184Z,91.57
2022-12-08T03:21:45.699Z,91.66
2022-12-08T03:23:52.912Z,92.14
2022-12-08T03:26:00.748Z,92.24
2022-12-08T03:28:04.640Z,92.42
2022-12-08T03:30:09.457Z,92.24
2022-12-08T03:32:18.531Z,91.69
2022-12-08T03:34:24.898Z,92.52
2022-12-08T03:36:28.945Z,91.96
2022-12-08T03:38:40.556Z,91.70
2022-12-08T03:40:44.596Z,91.79
2022-12-08T03:42:47.924Z,91.05
2022-12-08T03:44:51.252Z,90.73
2022-12-08T03:46:54.550Z,91.01
2022-12-08T03:49:00.185Z,90.70
2022-12-08T03:51:03.515Z,92.09
2022-12-08T03:53:06.785Z,92.18
2022-12-08T03:55:11.631Z,91.35
2022-12-08T03:57:15.368Z,91.97
2022-12-08T03:59:18.734Z,91.18
2022-12-08T04:01:23.064Z,91.45
2022-12-08T04:03:27.273Z,91.64
2022-12-08T04:05:30.678Z,92.17
2022-12-08T04:07:33.978Z,91.88
2022-12-08T04:09:37.264Z,91.36
2022-12-08T04:11:41.999Z,92.33
2022-12-08T04:13:45.646Z,92.22
2022-12-08T04:15:49.570Z,92.21
2022-12-08T04:17:52.958Z,91.90
2022-12-08T04:19:56.264Z,91.90
2022-12-08T04:21:59.668Z,91.86
2022-12-08T04:24:03.016Z,92.58
2022-12-08T04:26:06.772Z,93.04
2022-12-08T04:28:11.555Z,92.77
2022-12-08T04:30:14.967Z,93.18
2022-12-08T04:32:18.324Z,92.46
2022-12-08T04:34:21.721Z,93.01
2022-12-08T04:36:26.349Z,93.01
2022-12-08T04:38:29.833Z,93.31
2022-12-08T04:40:33.504Z,93.40
2022-12-08T04:42:36.787Z,93.55
2022-12-08T04:44:41.487Z,93.90
2022-12-08T04:46:44.838Z,94.90
2022-12-08T04:48:48.705Z,94.57
2022-12-08T04:50:52.494Z,94.85
2022-12-08T04:52:55.915Z,94.44
2022-12-08T04:54:59.251Z,95.39
2022-12-08T04:57:02.573Z,95.37
2022-12-08T04:59:05.871Z,95.49
2022-12-08T05:01:11.062Z,95.67
2022-12-08T05:03:15.185Z,95.58
2022-12-08T05:05:18.724Z,95.19
2022-12-08T05:07:22.032Z,95.20
2022-12-08T05:09:25.622Z,95.35
2022-12-08T05:11:28.967Z,95.76
2022-12-08T05:13:32.722Z,95.51
2022-12-08T05:15:36.025Z,96.81
2022-12-08T05:17:40.710Z,95.99
2022-12-08T05:19:44.147Z,96.16
2022-12-08T05:21:48.154Z,96.05
2022-12-08T05:23:51.516Z,96.15
2022-12-08T05:25:54.860Z,96.12
2022-12-08T05:28:17.545Z,95.92
2022-12-08T05:30:21.619Z,95.94
2022-12-08T05:32:25.070Z,95.86
2022-12-08T05:34:29.767Z,96.38
2022-12-08T05:36:33.104Z,96.86
2022-12-08T05:38:36.685Z,96.58
2022-12-08T05:40:40.720Z,95.98
2022-12-08T05:42:44.054Z,96.42
2022-12-08T05:44:47.397Z,95.86
2022-12-08T05:46:50.672Z,95.68
2022-12-08T05:48:54.058Z,96.47
2022-12-08T05:50:59.120Z,95.57
2022-12-08T05:53:02.399Z,96.00
2022-12-08T05:55:06.751Z,94.99
2022-12-08T05:57:10.187Z,94.85
2022-12-08T05:59:13.582Z,94.83
2022-12-08T06:01:21.805Z,95.39
2022-12-08T06:03:25.217Z,94.90
2022-12-08T06:05:28.643Z,96.00
2022-12-08T06:07:33.368Z,94.87
2022-12-08T06:09:36.664Z,95.65
2022-12-08T06:11:40.108Z,95.92
2022-12-08T06:13:43.488Z,95.48
2022-12-08T06:15:46.932Z,95.29
2022-12-08T06:17:50.308Z,95.29
2022-12-08T06:19:53.652Z,95.52
2022-12-08T06:21:57.045Z,96.35
2022-12-08T06:24:01.722Z,96.02
2022-12-08T06:26:06.873Z,95.45
2022-12-08T06:28:10.194Z,95.85
2022-12-08T06:30:14.211Z,95.42
2022-12-08T06:32:19.033Z,94.99
2022-12-08T06:34:25.095Z,96.93
2022-12-08T06:36:28.880Z,97.64
2022-12-08T06:38:32.435Z,97.09
2022-12-08T06:40:37.096Z,96.63
2022-12-08T06:42:47.061Z,97.91
2022-12-08T06:44:51.927Z,98.40
2022-12-08T06:46:55.250Z,96.87
2022-12-08T06:48:59.455Z,97.50
2022-12-08T06:51:08.123Z,97.95
2022-12-08T06:53:12.857Z,97.32
2022-12-08T06:55:35.329Z,97.97
2022-12-08T06:57:41.171Z,97.94
2022-12-08T06:59:44.508Z,98.33
2022-12-08T07:01:48.304Z,98.06
2022-12-08T07:03:51.778Z,97.79
2022-12-08T07:06:03.308Z,98.15
2022-12-08T07:08:09.206Z,97.35
2022-12-08T07:10:12.664Z,97.89
2022-12-08T07:12:16.095Z,97.97
2022-12-08T07:14:23.595Z,97.77
2022-12-08T07:16:27.307Z,98.41
2022-12-08T07:18:30.836Z,100.00
2022-12-08T07:20:34.249Z,97.02
2022-12-08T07:22:37.600Z,97.22
2022-12-08T07:24:41.136Z,97.61
2022-12-08T07:26:44.530Z,97.90
2022-12-08T07:28:47.971Z,98.06
2022-12-08T07:30:52.649Z,97.88
2022-12-08T07:32:56.038Z,97.48
2022-12-08T07:34:59.354Z,97.95
2022-12-08T07:37:03.320Z,97.70
2022-12-08T07:39:06.845Z,98.46
2022-12-08T07:41:13.392Z,98.87
2022-12-08T07:43:16.731Z,98.42
2022-12-08T07:45:20.162Z,98.80
2022-12-08T07:47:25.428Z,98.77
2022-12-08T07:49:28.773Z,97.35
2022-12-08T07:51:32.402Z,97.73
2022-12-08T07:53:36.220Z,98.48
2022-12-08T07:55:40.499Z,97.46
2022-12-08T07:57:43.785Z,97.70
2022-12-08T07:59:47.110Z,98.25
2022-12-08T08:02:13.192Z,97.43
2022-12-08T08:04:15.912Z,97.25
2022-12-08T08:06:19.306Z,97.77
2022-12-08T08:08:23.053Z,98.38
2022-12-08T08:10:26.701Z,98.74
2022-12-08T08:12:31.719Z,98.84
2022-12-08T08:14:35.754Z,98.51
2022-12-08T08:16:41.933Z,99.01
2022-12-08T08:18:48.047Z,98.28
2022-12-08T08:20:52.705Z,98.61
2022-12-08T08:22:56.135Z,98.44
2022-12-08T08:24:59.441Z,98.79
2022-12-08T08:27:02.955Z,99.07
2022-12-08T08:29:06.456Z,98.45
2022-12-08T08:31:10.105Z,98.73
2022-12-08T08:33:13.567Z,99.56
2022-12-08T08:35:17.257Z,99.34
2022-12-08T08:37:22.047Z,98.51
2022-12-08T08:39:25.388Z,99.90
2022-12-08T08:41:28.720Z,98.48
2022-12-08T08:43:37.781Z,98.25
2022-12-08T08:45:41.829Z,98.15
2022-12-08T08:47:45.832Z,97.72
2022-12-08T08:49:49.448Z,97.47
2022-12-08T08:51:52.751Z,98.22
2022-12-08T08:53:58.111Z,97.66
2022-12-08T08:56:02.868Z,97.79
2022-12-08T08:58:06.412Z,98.78
2022-12-08T09:00:11.306Z,97.85
2022-12-08T09:02:18.481Z,97.95
2022-12-08T09:04:22.520Z,97.84
2022-12-08T09:06:26.046Z,97.96
2022-12-08T09:08:29.635Z,96.82
2022-12-08T09:10:34.419Z,97.43
2022-12-08T09:12:37.711Z,97.30
2022-12-08T09:14:41.170Z,97.17
2022-12-08T09:16:44.566Z,97.16
2022-12-08T09:18:49.289Z,96.81
2022-12-08T09:20:52.765Z,96.44
2022-12-08T09:22:56.115Z,96.30
2022-12-08T09:24:59.448Z,96.47
2022-12-08T09:27:04.166Z,96.13
2022-12-08T09:29:07.463Z,94.90
2022-12-08T09:31:10.889Z,95.72
2022-12-08T09:33:14.172Z,94.81
2022-12-08T09:35:17.746Z,96.29
2022-12-08T09:37:21.084Z,95.66
2022-12-08T09:39:24.392Z,96.01
2022-12-08T09:41:37.979Z,95.88
2022-12-08T09:44:01.366Z,95.65
2022-12-08T09:46:08.057Z,94.91
2022-12-08T09:48:16.135Z,95.17
2022-12-08T09:50:26.486Z,95.60
2022-12-08T09:52:36.123Z,95.63
2022-12-08T09:54:39.560Z,95.41
2022-12-08T09:56:42.933Z,95.29
2022-12-08T09:58:52.746Z,95.42
2022-12-08T10:00:57.518Z,94.78
2022-12-08T10:03:01.035Z,94.79
2022-12-08T10:05:04.682Z,94.15
2022-12-08T10:07:22.502Z,94.54
2022-12-08T10:09:33.949Z,95.50
2022-12-08T10:11:45.170Z,94.43
2022-12-08T10:13:56.721Z,94.93
2022-12-08T10:16:21.131Z,95.28
2022-12-08T10:18:29.942Z,95.23
2022-12-08T10:20:38.447Z,95.70
2022-12-08T10:22:44.900Z,94.78
2022-12-08T10:24:56.968Z,95.38
2022-12-08T10:27:01.287Z,94.87
2022-12-08T10:29:04.862Z,95.54
2022-12-08T10:31:16.630Z,95.31
2022-12-08T10:33:22.713Z,95.42
2022-12-08T10:35:26.266Z,94.33
2022-12-08T10:37:29.806Z,95.38
2022-12-08T10:39:36.247Z,96.31
2022-12-08T10:41:41.243Z,96.19
2022-12-08T10:43:48.883Z,95.14
2022-12-08T10:45:52.593Z,96.22
2022-12-08T10:48:03.906Z,95.24
2022-12-08T10:50:22.512Z,95.51
2022-12-08T10:52:26.394Z,95.50
2022-12-08T10:54:34.272Z,95.25
2022-12-08T10:56:38.083Z,95.03
2022-12-08T10:58:43.192Z,94.99
2022-12-08T11:00:46.659Z,95.12
2022-12-08T11:02:57.425Z,94.94
2022-12-08T11:05:02.283Z,95.05
2022-12-08T11:07:07.198Z,95.13
2022-12-08T11:09:25.714Z,95.42
2022-12-08T11:11:39.648Z,94.39
2022-12-08T11:13:43.597Z,93.42
2022-12-08T11:15:47.517Z,94.11
2022-12-08T11:18:03.089Z,93.60
2022-12-08T11:20:24.546Z,93.55
2022-12-08T11:22:32.161Z,93.31
2022-12-08T11:24:37.873Z,92.89
2022-12-08T11:26:46.143Z,92.87
2022-12-08T11:28:49.475Z,92.50
2022-12-08T11:30:58.729Z,91.07
2022-12-08T11:33:09.370Z,92.49
2022-12-08T11:35:21.648Z,92.27
2022-12-08T11:37:34.608Z,92.17
2022-12-08T11:39:45.792Z,92.84
2022-12-08T11:41:52.842Z,92.77
2022-12-08T11:44:03.447Z,91.32
2022-12-08T11:46:14.637Z,90.78
2022-12-08T11:48:21.429Z,91.06
2022-12-08T11:50:30.883Z,91.36
2022-12-08T11:52:43.471Z,90.86
2022-12-08T11:54:51.899Z,89.92
2022-12-08T11:56:57.783Z,90.40
2022-12-08T11:59:06.894Z,90.42
2022-12-08T12:01:19.294Z,89.18
2022-12-08T12:03:30.475Z,90.09
2022-12-08T12:06:09.286Z,88.43
2022-12-08T12:08:26.638Z,88.59
2022-12-08T12:10:44.455Z,89.01
2022-12-08T12:13:04.547Z,88.30
2022-12-08T12:15:57.567Z,87.72
2022-12-08T12:18:04.739Z,87.65
2022-12-08T12:20:16.724Z,88.29
2022-12-08T12:22:24.234Z,87.27
2022-12-08T12:24:35.939Z,86.66
2022-12-08T12:26:54.758Z,86.96
2022-12-08T12:29:01.759Z,86.99
2022-12-08T12:31:09.242Z,86.48
2022-12-08T12:33:17.844Z,87.32
2022-12-08T12:35:27.916Z,87.53
2022-12-08T12:37:38.847Z,87.61
2022-12-08T12:39:51.686Z,87.50
2022-12-08T12:41:56.840Z,85.94
2022-12-08T12:44:26.433Z,86.37
2022-12-08T12:46:42.759Z,86.45
2022-12-08T12:48:46.172Z,85.84
2022-12-08T12:50:50.518Z,86.55
2022-12-08T12:52:55.305Z,86.21
2022-12-08T12:55:38.148Z,86.80
2022-12-08T12:57:52.008Z,85.16
2022-12-08T13:00:08.942Z,85.80
2022-12-08T13:02:24.801Z,86.20
2022-12-08T13:04:36.644Z,85.65
2022-12-08T13:06:44.180Z,86.27
2022-12-08T13:08:54.227Z,84.68
2022-12-08T13:11:01.789Z,85.83
2022-12-08T13:13:17.340Z,85.26
2022-12-08T13:15:21.782Z,84.51
2022-12-08T13:17:31.252Z,84.65
2022-12-08T13:19:39.710Z,84.11
2022-12-08T13:21:43.371Z,84.51
2022-12-08T13:23:49.305Z,84.59
2022-12-08T13:26:10.332Z,84.56
2022-12-08T13:28:20.195Z,84.95
2022-12-08T13:30:43.544Z,84.14
2022-12-08T13:35:21.920Z,83.88
2022-12-08T13:37:30.044Z,84.71
2022-12-08T13:39:41.307Z,83.80
2022-12-08T13:41:54.262Z,84.26
2022-12-08T13:55:01.380Z,83.82
2022-12-08T13:58:51.633Z,84.12
2022-12-08T14:00:58.739Z,83.32
2022-12-08T14:03:03.288Z,83.66
2022-12-08T14:05:35.151Z,82.38
2022-12-08T14:07:33.532Z,83.40
2022-12-08T14:09:38.463Z,83.18
2022-12-08T14:11:45.272Z,83.94
2022-12-08T14:13:52.471Z,83.83
2022-12-08T14:15:55.792Z,83.20
2022-12-08T14:17:59.217Z,83.48
2022-12-08T14:20:04.876Z,84.07
2022-12-08T14:22:13.631Z,83.85
2022-12-08T14:24:17.047Z,83.60
2022-12-08T14:26:20.398Z,83.48
2022-12-08T14:28:24.251Z,84.41
2022-12-08T14:30:32.128Z,84.08
2022-12-08T14:32:39.475Z,84.20
2022-12-08T14:34:43.469Z,84.41
2022-12-08T14:36:47.009Z,84.23
2022-12-08T14:38:58.027Z,84.37
2022-12-08T14:41:04.254Z,82.93
2022-12-08T14:43:17.119Z,82.94
2022-12-08T14:45:21.338Z,84.20
2022-12-08T14:47:30.727Z,82.61
2022-12-08T14:49:35.689Z,83.45
2022-12-08T14:51:41.143Z,83.82
2022-12-08T14:53:48.404Z,83.09
2022-12-08T14:55:51.814Z,82.45
2022-12-08T14:57:55.211Z,82.63
2022-12-08T14:59:58.605Z,83.04
2022-12-08T15:02:24.248Z,82.09
2022-12-08T15:04:29.706Z,82.34
2022-12-08T15:06:33.089Z,82.89
2022-12-08T15:08:52.549Z,83.08
2022-12-08T15:11:14.141Z,82.39
2022-12-08T15:13:26.466Z,82.69
2022-12-08T15:15:31.843Z,82.56
2022-12-08T15:17:41.756Z,82.87
2022-12-08T15:19:56.945Z,82.28
2022-12-08T15:22:10.087Z,81.98
2022-12-08T15:24:15.179Z,82.47
2022-12-08T15:26:22.203Z,82.31
2022-12-08T15:28:29.974Z,82.18
2022-12-08T15:30:34.373Z,83.13
2022-12-08T15:32:37.689Z,81.99
2022-12-08T15:34:41.027Z,82.48
2022-12-08T15:36:46.121Z,82.46
2022-12-08T15:38:49.662Z,81.55
2022-12-08T15:40:53.685Z,81.80
2022-12-08T15:42:57.022Z,81.93
2022-12-08T15:45:00.314Z,81.08
2022-12-08T15:47:04.207Z,81.71
2022-12-08T15:49:07.752Z,81.17
2022-12-08T15:51:11.104Z,82.42
2022-12-08T15:53:16.101Z,81.43
2022-12-08T15:55:21.177Z,81.79
2022-12-08T15:58:04.019Z,81.39
2022-12-08T15:59:50.512Z,81.29
2022-12-08T16:01:53.970Z,81.41
2022-12-08T16:08:56.080Z,82.86
2022-12-08T16:12:03.789Z,82.20
2022-12-08T16:13:58.225Z,82.93
2022-12-08T16:16:06.464Z,81.96
2022-12-08T16:18:17.075Z,81.98
2022-12-08T16:20:28.154Z,82.93
2022-12-08T16:22:54.586Z,82.44
2022-12-08T16:25:17.693Z,83.18
2022-12-08T16:29:48.940Z,81.81
2022-12-08T16:31:52.834Z,81.68
2022-12-08T16:33:56.147Z,81.45
2022-12-08T16:35:59.459Z,81.45
2022-12-08T16:38:02.853Z,81.69
2022-12-08T16:40:10.220Z,80.49
2022-12-08T16:42:32.328Z,80.93
2022-12-08T16:44:41.036Z,80.63
2022-12-08T16:46:44.347Z,80.68
2022-12-08T16:48:47.758Z,81.65
2022-12-08T16:50:51.430Z,80.69
2022-12-08T16:52:58.256Z,81.50
2022-12-08T16:55:01.866Z,81.13
2022-12-08T16:57:06.689Z,80.70
2022-12-08T16:59:09.971Z,81.08
2022-12-08T17:01:14.751Z,81.92
2022-12-08T17:03:18.696Z,81.88
2022-12-08T17:05:23.651Z,81.92
2022-12-08T17:07:27.131Z,80.66
2022-12-08T17:09:32.420Z,82.20
2022-12-08T17:11:42.292Z,81.81
2022-12-08T17:13:47.858Z,82.29
2022-12-08T17:15:51.301Z,82.46
2022-12-08T17:17:55.252Z,82.65
2022-12-08T17:19:58.537Z,82.42
2022-12-08T17:22:03.133Z,83.34
2022-12-08T17:24:06.760Z,83.08
2022-12-08T17:26:10.812Z,82.92
2022-12-08T17:28:22.468Z,83.46
2022-12-08T17:30:39.710Z,84.13
2022-12-08T17:32:43.755Z,84.09
2022-12-08T17:34:47.396Z,84.31
2022-12-08T17:36:50.941Z,84.75
2022-12-08T17:38:54.564Z,85.32
2022-12-08T17:41:03.079Z,84.52
2022-12-08T17:43:06.428Z,83.56
2022-12-08T17:45:10.568Z,84.05
2022-12-08T17:47:15.221Z,84.88
2022-12-08T17:49:21.633Z,84.22
2022-12-08T17:51:24.933Z,83.76
2022-12-08T17:53:30.646Z,84.17
2022-12-08T17:55:36.780Z,84.34
2022-12-08T17:57:40.156Z,84.64
2022-12-08T17:59:43.459Z,83.45
2022-12-08T18:01:47.107Z,84.36
2022-12-08T18:03:52.146Z,83.88
2022-12-08T18:05:55.558Z,85.30
2022-12-08T18:08:00.248Z,83.94
2022-12-08T18:10:04.306Z,84.01
2022-12-08T18:12:08.469Z,84.08
2022-12-08T18:14:12.298Z,83.51
2022-12-08T18:16:16.058Z,83.18
2022-12-08T18:18:19.845Z,83.07
2022-12-08T18:20:24.762Z,82.38
2022-12-08T18:22:28.287Z,83.77
2022-12-08T18:24:31.972Z,83.76
2022-12-08T18:26:35.777Z,83.01
2022-12-08T18:28:39.613Z,82.31
2022-12-08T18:30:43.015Z,83.68
2022-12-08T18:32:46.785Z,83.36
2022-12-08T18:34:50.387Z,83.27
2022-12-08T18:36:55.096Z,84.16
2022-12-08T18:38:59.043Z,84.03
2022-12-08T18:41:05.972Z,84.20
2022-12-08T18:43:09.346Z,83.96
2022-12-08T18:45:15.703Z,83.58
2022-12-08T18:47:21.333Z,83.83
2022-12-08T18:49:26.398Z,84.24
2022-12-08T18:51:29.812Z,85.14
2022-12-08T18:53:34.592Z,84.67
2022-12-08T18:55:38.394Z,83.77
2022-12-08T18:57:43.777Z,84.26
2022-12-08T18:59:47.247Z,83.68
2022-12-08T19:01:50.637Z,83.62
2022-12-08T19:04:20.088Z,83.56
2022-12-08T19:06:17.817Z,84.10
2022-12-08T19:08:22.601Z,84.80
2022-12-08T19:10:32.175Z,83.84
2022-12-08T19:12:35.602Z,83.41
2022-12-08T19:14:39.034Z,84.37
2022-12-08T19:16:42.493Z,83.83
2022-12-08T19:18:45.968Z,83.87
2022-12-08T19:20:49.367Z,83.85
2022-12-08T19:22:52.703Z,84.31
2022-12-08T19:24:56.099Z,84.10
2022-12-08T19:27:00.776Z,84.43
2022-12-08T19:29:04.597Z,83.69
2022-12-08T19:31:09.115Z,83.87
2022-12-08T19:33:12.652Z,85.02
2022-12-08T19:35:15.957Z,84.11
2022-12-08T19:37:19.353Z,83.87
2022-12-08T19:39:42.324Z,84.67
2022-12-08T19:42:03.705Z,84.64
2022-12-08T19:44:35.707Z,84.75
2022-12-08T19:46:40.625Z,84.13
2022-12-08T19:48:44.365Z,83.87
2022-12-08T19:50:47.778Z,84.49
2022-12-08T19:52:51.151Z,84.77
2022-12-08T19:54:54.727Z,84.95
2022-12-08T19:56:58.259Z,84.79
2022-12-08T19:59:01.620Z,83.85
2022-12-08T20:01:06.557Z,84.87
2022-12-08T20:03:11.691Z,83.96
2022-12-08T20:05:15.993Z,84.14
2022-12-08T20:07:19.834Z,83.85
2022-12-08T20:09:23.643Z,84.41
2022-12-08T20:11:27.040Z,83.61
2022-12-08T20:13:44.609Z,84.30
2022-12-08T20:15:47.965Z,83.83
2022-12-08T20:17:52.660Z,84.10
2022-12-08T20:19:56.063Z,83.11
2022-12-08T20:21:59.353Z,83.87
2022-12-08T20:24:04.563Z,84.03
2022-12-08T20:26:10.710Z,84.40
2022-12-08T20:28:14.262Z,84.45
2022-12-08T20:30:17.827Z,84.66
2022-12-08T20:32:21.187Z,84.53
2022-12-08T20:34:25.907Z,84.29
2022-12-08T20:36:29.551Z,85.04
2022-12-08T20:38:33.044Z,84.03
2022-12-08T20:40:36.395Z,84.78
2022-12-08T20:42:39.740Z,84.11
2022-12-08T20:44:44.456Z,84.63
2022-12-08T20:46:49.738Z,85.40
2022-12-08T20:48:53.397Z,85.21
2022-12-08T20:50:58.104Z,85.26
2022-12-08T20:53:01.553Z,85.92
2022-12-08T20:55:05.590Z,84.77
2022-12-08T20:57:08.954Z,84.89
2022-12-08T20:59:16.508Z,84.88
2022-12-08T21:01:22.522Z,85.45
2022-12-08T21:03:26.541Z,83.95
2022-12-08T21:05:30.241Z,83.93
2022-12-08T21:07:35.140Z,84.79
2022-12-08T21:09:38.757Z,83.96
2022-12-08T21:11:42.458Z,83.91
2022-12-08T21:13:46.859Z,84.21
2022-12-08T21:15:50.484Z,84.01
2022-12-08T21:17:54.804Z,84.22
2022-12-08T21:19:58.277Z,83.50
2022-12-08T21:22:01.824Z,84.11
2022-12-08T21:24:07.825Z,83.59
2022-12-08T21:26:13.482Z,83.83
2022-12-08T21:28:16.939Z,83.54
2022-12-08T21:30:20.567Z,83.68
2022-12-08T21:32:29.916Z,84.13
2022-12-08T21:34:34.248Z,83.68
2022-12-08T21:36:38.160Z,83.10
2022-12-08T21:38:41.881Z,83.19
2022-12-08T21:40:46.608Z,82.84
2022-12-08T21:42:50.469Z,82.10
2022-12-08T21:44:53.979Z,82.77
2022-12-08T21:46:57.542Z,81.92
2022-12-08T21:49:01.227Z,82.62
2022-12-08T21:51:05.814Z,82.67
2022-12-08T21:53:09.495Z,82.88
2022-12-08T21:55:14.356Z,82.75
2022-12-08T21:57:19.390Z,82.66
2022-12-08T21:59:23.019Z,83.63
2022-12-08T22:01:26.773Z,83.43
2022-12-08T22:03:30.771Z,83.45
2022-12-08T22:05:36.897Z,83.30
2022-12-08T22:07:41.764Z,84.26
2022-12-08T22:09:45.481Z,83.99
2022-12-08T22:11:49.272Z,83.60
2022-12-08T22:13:54.484Z,85.09
2022-12-08T22:15:58.863Z,83.43
2022-12-08T22:18:02.656Z,84.09
2022-12-08T22:20:08.600Z,84.15
2022-12-08T22:22:12.492Z,83.25
2022-12-08T22:24:16.056Z,82.60
2022-12-08T22:26:19.682Z,82.66
2022-12-08T22:28:23.459Z,82.67
2022-12-08T22:30:29.165Z,83.77
2022-12-08T22:32:34.611Z,83.21
2022-12-08T22:34:38.366Z,83.20
2022-12-08T22:36:42.275Z,83.90
2022-12-08T22:38:46.381Z,83.58
2022-12-08T22:40:49.920Z,82.44
2022-12-08T22:42:53.399Z,82.79
2022-12-08T22:44:56.899Z,83.53
2022-12-08T22:47:01.911Z,83.73
2022-12-08T22:49:05.603Z,83.58
2022-12-08T22:51:09.695Z,83.46
2022-12-08T22:53:13.955Z,82.79
2022-12-08T22:55:17.762Z,83.04
2022-12-08T22:57:21.484Z,83.17
2022-12-08T22:59:24.958Z,83.12
2022-12-08T23:01:31.906Z,82.79
2022-12-08T23:03:37.301Z,82.52
2022-12-08T23:05:41.238Z,83.57
2022-12-08T23:07:44.673Z,83.40
2022-12-08T23:09:48.210Z,83.01
2022-12-08T23:11:52.255Z,82.54
2022-12-08T23:13:56.331Z,83.00
2022-12-08T23:15:59.744Z,83.39
2022-12-08T23:18:03.147Z,83.20
2022-12-08T23:20:09.715Z,83.60
2022-12-08T23:22:13.350Z,83.67
2022-12-08T23:24:16.834Z,83.03
2022-12-08T23:26:22.440Z,83.96
2022-12-08T23:28:26.185Z,84.00
2022-12-08T23:30:29.512Z,83.63
2022-12-08T23:32:32.915Z,84.06
2022-12-08T23:34:36.368Z,84.00
2022-12-08T23:36:41.026Z,83.16
2022-12-08T23:38:44.551Z,83.75
2022-12-08T23:40:47.961Z,84.37
2022-12-08T23:42:51.474Z,83.61
2022-12-08T23:44:54.822Z,83.84
2022-12-08T23:46:58.224Z,84.07
2022-12-08T23:49:01.908Z,83.12
2022-12-08T23:51:05.498Z,82.86
2022-12-08T23:53:10.203Z,83.40
2022-12-08T23:55:13.601Z,82.75
2022-12-08T23:57:17.131Z,83.15
2022-12-08T23:59:20.512Z,83.27
